sensor_id;sensor_type;location;lat;lon;timestamp;temperature;humidity
4673;DHT22;61885;53.560;9.940;2022-12-07T00:00:48;3.20;99.90
4673;DHT22;61885;53.560;9.940;2022-12-07T00:03:24;3.20;99.90
4673;DHT22;61885;53.560;9.940;2022-12-07T00:05:57;3.20;99.90
4673;DHT22;61885;53.560;9.940;2022-12-07T00:08:28;3.10;99.90
4673;DHT22;61885;53.560;9.940;2022-12-07T00:11:02;3.20;99.90
4673;DHT22;61885;53.560;9.940;2022-12-07T00:13:33;3.20;99.90
4673;DHT22;61885;53.560;9.940;2022-12-07T00:16:06;3.20;99.90
4673;DHT22;61885;53.560;9.940;2022-12-07T00:18:41;3.20;99.90
4673;DHT22;61885;53.560;9.940;2022-12-07T00:21:14;3.20;99.90
4673;DHT22;61885;53.560;9.940;2022-12-07T00:23:52;3.30;99.90
4673;DHT22;61885;53.560;9.940;2022-12-07T00:26:24;3.20;99.90
4673;DHT22;61885;53.560;9.940;2022-12-07T00:28:56;3.20;99.90
4673;DHT22;61885;53.560;9.940;2022-12-07T00:31:30;3.20;99.90
4673;DHT22;61885;53.560;9.940;2022-12-07T00:34:05;3.30;99.90
4673;DHT22;61885;53.560;9.940;2022-12-07T00:39:22;3.30;99.90
4673;DHT22;61885;53.560;9.940;2022-12-07T00:41:52;3.30;99.90
4673;DHT22;61885;53.560;9.940;2022-12-07T00:44:23;3.30;99.90
4673;DHT22;61885;53.560;9.940;2022-12-07T00:46:57;3.30;99.90
4673;DHT22;61885;53.560;9.940;2022-12-07T00:49:33;3.30;99.90
4673;DHT22;61885;53.560;9.940;2022-12-07T00:52:06;3.30;99.90
4673;DHT22;61885;53.560;9.940;2022-12-07T00:54:36;3.30;99.90
4673;DHT22;61885;53.560;9.940;2022-12-07T00:57:06;3.30;99.90
4673;DHT22;61885;53.560;9.940;2022-12-07T00:59:36;3.30;99.90
4673;DHT22;61885;53.560;9.940;2022-12-07T01:02:06;3.30;99.90
4673;DHT22;61885;53.560;9.940;2022-12-07T01:04:53;3.30;99.90
4673;DHT22;61885;53.560;9.940;2022-12-07T01:07:26;3.40;99.90
4673;DHT22;61885;53.560;9.940;2022-12-07T01:09:58;3.30;99.90
4673;DHT22;61885;53.560;9.940;2022-12-07T01:12:30;3.30;99.90
4673;DHT22;61885;53.560;9.940;2022-12-07T01:15:02;3.30;99.90
4673;DHT22;61885;53.560;9.940;2022-12-07T01:17:32;3.30;99.90
4673;DHT22;61885;53.560;9.940;2022-12-07T01:20:06;3.30;99.90
4673;DHT22;61885;53.560;9.940;2022-12-07T01:22:38;3.30;99.90
4673;DHT22;61885;53.560;9.940;2022-12-07T01:25:10;3.30;99.90
4673;DHT22;61885;53.560;9.940;2022-12-07T01:27:48;3.30;99.90
4673;DHT22;61885;53.560;9.940;2022-12-07T01:30:20;3.30;99.90
4673;DHT22;61885;53.560;9.940;2022-12-07T01:32:58;3.30;99.90
4673;DHT22;61885;53.560;9.940;2022-12-07T01:35:41;3.30;99.90
4673;DHT22;61885;53.560;9.940;2022-12-07T01:38:20;3.30;99.90
4673;DHT22;61885;53.560;9.940;2022-12-07T01:40:54;3.30;99.90
4673;DHT22;61885;53.560;9.940;2022-12-07T01:43:29;3.30;99.90
4673;DHT22;61885;53.560;9.940;2022-12-07T01:45:59;3.40;99.90
4673;DHT22;61885;53.560;9.940;2022-12-07T01:48:34;3.40;99.90
4673;DHT22;61885;53.560;9.940;2022-12-07T01:51:13;3.30;99.90
4673;DHT22;61885;53.560;9.940;2022-12-07T01:53:45;3.30;99.90
4673;DHT22;61885;53.560;9.940;2022-12-07T01:56:19;3.40;99.90
4673;DHT22;61885;53.560;9.940;2022-12-07T01:58:52;3.40;99.90
4673;DHT22;61885;53.560;9.940;2022-12-07T02:01:22;3.30;99.90
4673;DHT22;61885;53.560;9.940;2022-12-07T02:03:53;3.30;99.90
4673;DHT22;61885;53.560;9.940;2022-12-07T02:06:26;3.30;99.90
4673;DHT22;61885;53.560;9.940;2022-12-07T02:08:58;3.20;99.90
4673;DHT22;61885;53.560;9.940;2022-12-07T02:11:30;3.30;99.90
4673;DHT22;61885;53.560;9.940;2022-12-07T02:14:01;3.20;99.90
4673;DHT22;61885;53.560;9.940;2022-12-07T02:16:42;3.20;99.90
4673;DHT22;61885;53.560;9.940;2022-12-07T02:19:43;3.20;99.90
4673;DHT22;61885;53.560;9.940;2022-12-07T02:22:34;3.20;99.90
4673;DHT22;61885;53.560;9.940;2022-12-07T02:25:18;3.10;99.90
4673;DHT22;61885;53.560;9.940;2022-12-07T02:27:54;3.10;99.90
4673;DHT22;61885;53.560;9.940;2022-12-07T02:30:34;3.10;99.90
4673;DHT22;61885;53.560;9.940;2022-12-07T02:33:12;3.10;99.90
4673;DHT22;61885;53.560;9.940;2022-12-07T02:35:46;3.00;99.90
4673;DHT22;61885;53.560;9.940;2022-12-07T02:38:24;3.00;99.90
4673;DHT22;61885;53.560;9.940;2022-12-07T02:41:00;3.00;99.90
4673;DHT22;61885;53.560;9.940;2022-12-07T02:43:35;3.10;99.90
4673;DHT22;61885;53.560;9.940;2022-12-07T02:46:15;3.10;99.90
4673;DHT22;61885;53.560;9.940;2022-12-07T02:48:47;3.10;99.90
4673;DHT22;61885;53.560;9.940;2022-12-07T02:51:22;3.10;99.90
4673;DHT22;61885;53.560;9.940;2022-12-07T02:53:53;3.10;99.90
4673;DHT22;61885;53.560;9.940;2022-12-07T02:56:27;3.10;99.90
4673;DHT22;61885;53.560;9.940;2022-12-07T02:59:08;3.10;99.90
4673;DHT22;61885;53.560;9.940;2022-12-07T03:01:52;3.10;99.90
4673;DHT22;61885;53.560;9.940;2022-12-07T03:04:33;3.10;99.90
4673;DHT22;61885;53.560;9.940;2022-12-07T03:07:11;3.00;99.90
4673;DHT22;61885;53.560;9.940;2022-12-07T03:09:51;3.00;99.90
4673;DHT22;61885;53.560;9.940;2022-12-07T03:12:29;3.00;99.90
4673;DHT22;61885;53.560;9.940;2022-12-07T03:15:07;3.00;99.90
4673;DHT22;61885;53.560;9.940;2022-12-07T03:17:43;3.00;99.90
4673;DHT22;61885;53.560;9.940;2022-12-07T03:20:17;2.90;99.90
4673;DHT22;61885;53.560;9.940;2022-12-07T03:22:49;2.90;99.90
4673;DHT22;61885;53.560;9.940;2022-12-07T03:25:24;2.90;99.90
4673;DHT22;61885;53.560;9.940;2022-12-07T03:27:58;2.90;99.90
4673;DHT22;61885;53.560;9.940;2022-12-07T03:30:35;2.80;99.90
4673;DHT22;61885;53.560;9.940;2022-12-07T03:33:13;2.80;99.90
4673;DHT22;61885;53.560;9.940;2022-12-07T03:35:47;2.70;99.90
4673;DHT22;61885;53.560;9.940;2022-12-07T03:38:20;2.80;99.90
4673;DHT22;61885;53.560;9.940;2022-12-07T03:40:59;2.70;99.90
4673;DHT22;61885;53.560;9.940;2022-12-07T03:43:32;2.70;99.90
4673;DHT22;61885;53.560;9.940;2022-12-07T03:46:17;2.70;99.90
4673;DHT22;61885;53.560;9.940;2022-12-07T03:48:56;2.70;99.90
4673;DHT22;61885;53.560;9.940;2022-12-07T03:51:33;2.70;99.90
4673;DHT22;61885;53.560;9.940;2022-12-07T03:54:10;2.60;99.90
4673;DHT22;61885;53.560;9.940;2022-12-07T03:56:43;2.70;99.90
4673;DHT22;61885;53.560;9.940;2022-12-07T03:59:19;2.60;99.90
4673;DHT22;61885;53.560;9.940;2022-12-07T04:02:00;2.60;99.90
4673;DHT22;61885;53.560;9.940;2022-12-07T04:04:34;2.60;99.90
4673;DHT22;61885;53.560;9.940;2022-12-07T04:07:05;2.60;99.90
4673;DHT22;61885;53.560;9.940;2022-12-07T04:09:36;2.60;99.90
4673;DHT22;61885;53.560;9.940;2022-12-07T04:12:07;2.60;99.90
4673;DHT22;61885;53.560;9.940;2022-12-07T04:14:38;2.50;99.90
4673;DHT22;61885;53.560;9.940;2022-12-07T04:17:12;2.60;99.90
4673;DHT22;61885;53.560;9.940;2022-12-07T04:19:52;2.50;99.90
4673;DHT22;61885;53.560;9.940;2022-12-07T04:22:23;2.50;99.90
4673;DHT22;61885;53.560;9.940;2022-12-07T04:24:53;2.50;99.90
4673;DHT22;61885;53.560;9.940;2022-12-07T04:27:24;2.50;99.90
4673;DHT22;61885;53.560;9.940;2022-12-07T04:29:58;2.60;99.90
4673;DHT22;61885;53.560;9.940;2022-12-07T04:32:30;2.60;99.90
4673;DHT22;61885;53.560;9.940;2022-12-07T04:35:02;2.60;99.90
4673;DHT22;61885;53.560;9.940;2022-12-07T04:37:37;2.60;99.90
4673;DHT22;61885;53.560;9.940;2022-12-07T04:40:11;2.50;99.90
4673;DHT22;61885;53.560;9.940;2022-12-07T04:42:46;2.50;99.90
4673;DHT22;61885;53.560;9.940;2022-12-07T04:45:18;2.50;99.90
4673;DHT22;61885;53.560;9.940;2022-12-07T04:47:50;2.50;99.90
4673;DHT22;61885;53.560;9.940;2022-12-07T04:50:23;2.40;99.90
4673;DHT22;61885;53.560;9.940;2022-12-07T04:52:55;2.40;99.90
4673;DHT22;61885;53.560;9.940;2022-12-07T04:55:24;2.40;99.90
4673;DHT22;61885;53.560;9.940;2022-12-07T04:57:59;2.30;99.90
4673;DHT22;61885;53.560;9.940;2022-12-07T05:00:28;2.30;99.90
4673;DHT22;61885;53.560;9.940;2022-12-07T05:02:59;2.30;99.90
4673;DHT22;61885;53.560;9.940;2022-12-07T05:05:34;2.30;99.90
4673;DHT22;61885;53.560;9.940;2022-12-07T05:08:04;2.20;99.90
4673;DHT22;61885;53.560;9.940;2022-12-07T05:10:41;2.30;99.90
4673;DHT22;61885;53.560;9.940;2022-12-07T05:13:15;2.30;99.90
4673;DHT22;61885;53.560;9.940;2022-12-07T05:15:46;2.30;99.90
4673;DHT22;61885;53.560;9.940;2022-12-07T05:18:16;2.30;99.90
4673;DHT22;61885;53.560;9.940;2022-12-07T05:20:51;2.30;99.90
4673;DHT22;61885;53.560;9.940;2022-12-07T05:23:22;2.30;99.90
4673;DHT22;61885;53.560;9.940;2022-12-07T05:26:00;2.30;99.90
4673;DHT22;61885;53.560;9.940;2022-12-07T05:28:34;2.30;99.90
4673;DHT22;61885;53.560;9.940;2022-12-07T05:31:05;2.30;99.90
4673;DHT22;61885;53.560;9.940;2022-12-07T05:33:35;2.30;99.90
4673;DHT22;61885;53.560;9.940;2022-12-07T05:36:09;2.30;99.90
4673;DHT22;61885;53.560;9.940;2022-12-07T05:38:39;2.30;99.90
4673;DHT22;61885;53.560;9.940;2022-12-07T05:41:21;2.30;99.90
4673;DHT22;61885;53.560;9.940;2022-12-07T05:44:05;2.20;99.90
4673;DHT22;61885;53.560;9.940;2022-12-07T05:46:36;2.30;99.90
4673;DHT22;61885;53.560;9.940;2022-12-07T05:49:07;2.30;99.90
4673;DHT22;61885;53.560;9.940;2022-12-07T05:51:41;2.20;99.90
4673;DHT22;61885;53.560;9.940;2022-12-07T05:54:12;2.30;99.90
4673;DHT22;61885;53.560;9.940;2022-12-07T05:56:42;2.30;99.90
4673;DHT22;61885;53.560;9.940;2022-12-07T05:59:16;2.30;99.90
4673;DHT22;61885;53.560;9.940;2022-12-07T06:01:55;2.30;99.90
4673;DHT22;61885;53.560;9.940;2022-12-07T06:04:26;2.30;99.90
4673;DHT22;61885;53.560;9.940;2022-12-07T06:06:59;2.20;99.90
4673;DHT22;61885;53.560;9.940;2022-12-07T06:09:29;2.20;99.90
4673;DHT22;61885;53.560;9.940;2022-12-07T06:11:59;2.30;99.90
4673;DHT22;61885;53.560;9.940;2022-12-07T06:14:42;2.20;99.90
4673;DHT22;61885;53.560;9.940;2022-12-07T06:17:12;2.20;99.90
4673;DHT22;61885;53.560;9.940;2022-12-07T06:19:42;2.20;99.90
4673;DHT22;61885;53.560;9.940;2022-12-07T06:22:15;2.20;99.90
4673;DHT22;61885;53.560;9.940;2022-12-07T06:24:45;2.20;99.90
4673;DHT22;61885;53.560;9.940;2022-12-07T06:27:19;2.20;99.90
4673;DHT22;61885;53.560;9.940;2022-12-07T06:29:49;2.10;99.90
4673;DHT22;61885;53.560;9.940;2022-12-07T06:32:19;2.20;99.90
4673;DHT22;61885;53.560;9.940;2022-12-07T06:34:48;2.20;99.90
4673;DHT22;61885;53.560;9.940;2022-12-07T06:37:22;2.20;99.90
4673;DHT22;61885;53.560;9.940;2022-12-07T06:39:53;2.20;99.90
4673;DHT22;61885;53.560;9.940;2022-12-07T06:42:30;2.20;99.90
4673;DHT22;61885;53.560;9.940;2022-12-07T06:45:02;2.20;99.90
4673;DHT22;61885;53.560;9.940;2022-12-07T06:47:34;2.20;99.90
4673;DHT22;61885;53.560;9.940;2022-12-07T06:50:07;2.20;99.90
4673;DHT22;61885;53.560;9.940;2022-12-07T06:52:42;2.20;99.90
4673;DHT22;61885;53.560;9.940;2022-12-07T06:55:12;2.20;99.90
4673;DHT22;61885;53.560;9.940;2022-12-07T06:57:42;2.10;99.90
4673;DHT22;61885;53.560;9.940;2022-12-07T07:00:19;2.10;99.90
4673;DHT22;61885;53.560;9.940;2022-12-07T07:02:49;2.10;99.90
4673;DHT22;61885;53.560;9.940;2022-12-07T07:05:19;2.10;99.90
4673;DHT22;61885;53.560;9.940;2022-12-07T07:07:52;2.10;99.90
4673;DHT22;61885;53.560;9.940;2022-12-07T07:10:21;2.10;99.90
4673;DHT22;61885;53.560;9.940;2022-12-07T07:12:52;2.00;99.90
4673;DHT22;61885;53.560;9.940;2022-12-07T07:15:23;2.00;99.90
4673;DHT22;61885;53.560;9.940;2022-12-07T07:17:56;2.00;99.90
4673;DHT22;61885;53.560;9.940;2022-12-07T07:20:27;2.00;99.90
4673;DHT22;61885;53.560;9.940;2022-12-07T07:23:03;2.10;99.90
4673;DHT22;61885;53.560;9.940;2022-12-07T07:25:33;2.80;99.90
4673;DHT22;61885;53.560;9.940;2022-12-07T07:28:03;2.50;99.90
4673;DHT22;61885;53.560;9.940;2022-12-07T07:30:34;2.50;99.90
4673;DHT22;61885;53.560;9.940;2022-12-07T07:33:04;2.40;99.90
4673;DHT22;61885;53.560;9.940;2022-12-07T07:35:35;2.40;99.90
4673;DHT22;61885;53.560;9.940;2022-12-07T07:38:10;2.20;99.90
4673;DHT22;61885;53.560;9.940;2022-12-07T07:40:40;2.10;99.90
4673;DHT22;61885;53.560;9.940;2022-12-07T07:43:13;2.10;99.90
4673;DHT22;61885;53.560;9.940;2022-12-07T07:45:45;2.10;99.90
4673;DHT22;61885;53.560;9.940;2022-12-07T07:48:17;2.20;99.90
4673;DHT22;61885;53.560;9.940;2022-12-07T07:50:49;2.20;99.90
4673;DHT22;61885;53.560;9.940;2022-12-07T07:53:21;2.20;99.90
4673;DHT22;61885;53.560;9.940;2022-12-07T07:55:52;2.20;99.90
4673;DHT22;61885;53.560;9.940;2022-12-07T07:58:24;2.20;99.90
4673;DHT22;61885;53.560;9.940;2022-12-07T08:00:55;2.30;99.90
4673;DHT22;61885;53.560;9.940;2022-12-07T08:03:25;2.30;99.90
4673;DHT22;61885;53.560;9.940;2022-12-07T08:05:55;2.30;99.90
4673;DHT22;61885;53.560;9.940;2022-12-07T08:08:28;2.30;99.90
4673;DHT22;61885;53.560;9.940;2022-12-07T08:10:58;2.40;99.90
4673;DHT22;61885;53.560;9.940;2022-12-07T08:13:29;2.30;99.90
4673;DHT22;61885;53.560;9.940;2022-12-07T08:16:00;2.40;99.90
4673;DHT22;61885;53.560;9.940;2022-12-07T08:18:35;2.40;99.90
4673;DHT22;61885;53.560;9.940;2022-12-07T08:21:06;2.40;99.90
4673;DHT22;61885;53.560;9.940;2022-12-07T08:23:38;2.40;99.90
4673;DHT22;61885;53.560;9.940;2022-12-07T08:26:11;2.50;99.90
4673;DHT22;61885;53.560;9.940;2022-12-07T08:28:41;2.50;99.90
4673;DHT22;61885;53.560;9.940;2022-12-07T08:31:13;2.50;99.90
4673;DHT22;61885;53.560;9.940;2022-12-07T08:33:46;2.60;99.90
4673;DHT22;61885;53.560;9.940;2022-12-07T08:36:16;2.60;99.90
4673;DHT22;61885;53.560;9.940;2022-12-07T08:38:51;2.60;99.90
4673;DHT22;61885;53.560;9.940;2022-12-07T08:41:26;2.60;99.90
4673;DHT22;61885;53.560;9.940;2022-12-07T08:43:58;2.60;99.90
4673;DHT22;61885;53.560;9.940;2022-12-07T08:46:31;2.60;99.90
4673;DHT22;61885;53.560;9.940;2022-12-07T08:49:07;2.70;99.90
4673;DHT22;61885;53.560;9.940;2022-12-07T08:51:40;2.70;99.90
4673;DHT22;61885;53.560;9.940;2022-12-07T08:54:16;2.70;99.90
4673;DHT22;61885;53.560;9.940;2022-12-07T08:56:49;2.80;99.90
4673;DHT22;61885;53.560;9.940;2022-12-07T08:59:20;2.80;99.90
4673;DHT22;61885;53.560;9.940;2022-12-07T09:01:51;2.90;99.90
4673;DHT22;61885;53.560;9.940;2022-12-07T09:04:26;2.90;99.90
4673;DHT22;61885;53.560;9.940;2022-12-07T09:06:56;3.00;99.90
4673;DHT22;61885;53.560;9.940;2022-12-07T09:09:31;3.00;99.90
4673;DHT22;61885;53.560;9.940;2022-12-07T09:12:01;3.00;99.90
4673;DHT22;61885;53.560;9.940;2022-12-07T09:14:30;3.00;99.90
4673;DHT22;61885;53.560;9.940;2022-12-07T09:17:06;3.10;99.90
4673;DHT22;61885;53.560;9.940;2022-12-07T09:19:36;3.10;99.90
4673;DHT22;61885;53.560;9.940;2022-12-07T09:22:08;3.10;99.90
4673;DHT22;61885;53.560;9.940;2022-12-07T09:24:41;3.10;99.90
4673;DHT22;61885;53.560;9.940;2022-12-07T09:27:12;3.10;99.90
4673;DHT22;61885;53.560;9.940;2022-12-07T09:29:44;3.10;99.90
4673;DHT22;61885;53.560;9.940;2022-12-07T09:32:14;3.20;99.90
4673;DHT22;61885;53.560;9.940;2022-12-07T09:34:48;3.20;99.90
4673;DHT22;61885;53.560;9.940;2022-12-07T09:37:19;3.30;99.90
4673;DHT22;61885;53.560;9.940;2022-12-07T09:39:52;3.30;99.90
4673;DHT22;61885;53.560;9.940;2022-12-07T09:42:29;3.30;99.90
4673;DHT22;61885;53.560;9.940;2022-12-07T09:45:04;3.30;99.90
4673;DHT22;61885;53.560;9.940;2022-12-07T09:47:38;3.40;99.90
4673;DHT22;61885;53.560;9.940;2022-12-07T09:50:14;3.50;99.90
4673;DHT22;61885;53.560;9.940;2022-12-07T09:52:47;3.50;99.90
4673;DHT22;61885;53.560;9.940;2022-12-07T09:55:23;3.50;99.90
4673;DHT22;61885;53.560;9.940;2022-12-07T09:57:54;3.60;99.90
4673;DHT22;61885;53.560;9.940;2022-12-07T10:00:25;3.60;99.90
4673;DHT22;61885;53.560;9.940;2022-12-07T10:02:58;3.70;99.90
4673;DHT22;61885;53.560;9.940;2022-12-07T10:05:32;3.70;99.90
4673;DHT22;61885;53.560;9.940;2022-12-07T10:08:11;3.70;99.90
4673;DHT22;61885;53.560;9.940;2022-12-07T10:10:48;3.70;99.90
4673;DHT22;61885;53.560;9.940;2022-12-07T10:13:34;3.80;99.90
4673;DHT22;61885;53.560;9.940;2022-12-07T10:16:09;3.80;99.90
4673;DHT22;61885;53.560;9.940;2022-12-07T10:18:54;3.80;99.90
4673;DHT22;61885;53.560;9.940;2022-12-07T10:21:28;3.80;99.90
4673;DHT22;61885;53.560;9.940;2022-12-07T10:24:05;3.90;99.90
4673;DHT22;61885;53.560;9.940;2022-12-07T10:26:50;3.90;99.90
4673;DHT22;61885;53.560;9.940;2022-12-07T10:29:32;3.90;99.90
4673;DHT22;61885;53.560;9.940;2022-12-07T10:32:30;3.90;99.90
4673;DHT22;61885;53.560;9.940;2022-12-07T10:35:19;4.00;99.90
4673;DHT22;61885;53.560;9.940;2022-12-07T10:37:54;3.90;99.90
4673;DHT22;61885;53.560;9.940;2022-12-07T10:40:31;3.80;99.90
4673;DHT22;61885;53.560;9.940;2022-12-07T10:43:18;3.90;99.90
4673;DHT22;61885;53.560;9.940;2022-12-07T10:46:16;3.90;99.90
4673;DHT22;61885;53.560;9.940;2022-12-07T10:48:57;4.00;99.90
4673;DHT22;61885;53.560;9.940;2022-12-07T10:51:37;3.90;99.90
4673;DHT22;61885;53.560;9.940;2022-12-07T10:54:21;4.00;99.90
4673;DHT22;61885;53.560;9.940;2022-12-07T10:57:22;4.00;99.90
4673;DHT22;61885;53.560;9.940;2022-12-07T11:00:10;4.00;99.90
4673;DHT22;61885;53.560;9.940;2022-12-07T11:03:17;4.00;99.90
4673;DHT22;61885;53.560;9.940;2022-12-07T11:05:56;4.10;99.90
4673;DHT22;61885;53.560;9.940;2022-12-07T11:08:44;4.10;99.90
4673;DHT22;61885;53.560;9.940;2022-12-07T11:11:23;4.10;99.90
4673;DHT22;61885;53.560;9.940;2022-12-07T11:14:03;4.00;99.90
4673;DHT22;61885;53.560;9.940;2022-12-07T11:16:49;4.10;99.90
4673;DHT22;61885;53.560;9.940;2022-12-07T11:22:34;4.10;99.90
4673;DHT22;61885;53.560;9.940;2022-12-07T11:25:17;4.00;99.90
4673;DHT22;61885;53.560;9.940;2022-12-07T11:28:06;4.00;99.90
4673;DHT22;61885;53.560;9.940;2022-12-07T11:30:53;4.10;99.90
4673;DHT22;61885;53.560;9.940;2022-12-07T11:33:38;4.10;99.90
4673;DHT22;61885;53.560;9.940;2022-12-07T11:36:28;4.20;99.90
4673;DHT22;61885;53.560;9.940;2022-12-07T11:39:03;4.10;99.90
4673;DHT22;61885;53.560;9.940;2022-12-07T11:41:36;4.00;99.90
4673;DHT22;61885;53.560;9.940;2022-12-07T11:44:28;4.10;99.90
4673;DHT22;61885;53.560;9.940;2022-12-07T11:47:06;4.10;99.90
4673;DHT22;61885;53.560;9.940;2022-12-07T11:49:53;4.10;99.90
4673;DHT22;61885;53.560;9.940;2022-12-07T11:52:30;4.20;99.90
4673;DHT22;61885;53.560;9.940;2022-12-07T11:55:21;4.30;99.90
4673;DHT22;61885;53.560;9.940;2022-12-07T11:58:02;4.20;99.90
4673;DHT22;61885;53.560;9.940;2022-12-07T12:00:33;4.20;99.90
4673;DHT22;61885;53.560;9.940;2022-12-07T12:03:13;4.20;99.90
4673;DHT22;61885;53.560;9.940;2022-12-07T12:05:50;4.20;99.90
4673;DHT22;61885;53.560;9.940;2022-12-07T12:08:23;4.30;99.90
4673;DHT22;61885;53.560;9.940;2022-12-07T12:11:00;4.20;99.90
4673;DHT22;61885;53.560;9.940;2022-12-07T12:14:10;4.30;99.90
4673;DHT22;61885;53.560;9.940;2022-12-07T12:20:02;4.40;99.90
4673;DHT22;61885;53.560;9.940;2022-12-07T12:22:39;4.40;99.90
4673;DHT22;61885;53.560;9.940;2022-12-07T12:25:19;4.30;99.90
4673;DHT22;61885;53.560;9.940;2022-12-07T12:27:59;4.30;99.90
4673;DHT22;61885;53.560;9.940;2022-12-07T12:30:34;4.30;99.90
4673;DHT22;61885;53.560;9.940;2022-12-07T12:33:06;4.40;99.90
4673;DHT22;61885;53.560;9.940;2022-12-07T12:35:42;4.50;99.90
4673;DHT22;61885;53.560;9.940;2022-12-07T12:38:36;4.50;99.90
4673;DHT22;61885;53.560;9.940;2022-12-07T12:48:28;4.80;99.90
4673;DHT22;61885;53.560;9.940;2022-12-07T12:54:14;4.70;99.90
4673;DHT22;61885;53.560;9.940;2022-12-07T12:57:15;4.40;99.90
4673;DHT22;61885;53.560;9.940;2022-12-07T12:59:56;4.70;99.90
4673;DHT22;61885;53.560;9.940;2022-12-07T13:02:29;4.70;99.90
4673;DHT22;61885;53.560;9.940;2022-12-07T13:05:01;4.60;99.90
4673;DHT22;61885;53.560;9.940;2022-12-07T13:07:50;4.70;99.90
4673;DHT22;61885;53.560;9.940;2022-12-07T13:10:44;4.70;99.90
4673;DHT22;61885;53.560;9.940;2022-12-07T13:13:32;4.70;99.90
4673;DHT22;61885;53.560;9.940;2022-12-07T13:16:38;4.80;99.90
4673;DHT22;61885;53.560;9.940;2022-12-07T13:25:12;4.70;99.90
4673;DHT22;61885;53.560;9.940;2022-12-07T13:27:56;4.70;99.90
4673;DHT22;61885;53.560;9.940;2022-12-07T13:30:28;4.50;99.90
4673;DHT22;61885;53.560;9.940;2022-12-07T13:33:03;4.60;99.90
4673;DHT22;61885;53.560;9.940;2022-12-07T13:35:34;4.60;99.90
4673;DHT22;61885;53.560;9.940;2022-12-07T13:38:22;4.60;99.90
4673;DHT22;61885;53.560;9.940;2022-12-07T13:41:00;4.60;99.90
4673;DHT22;61885;53.560;9.940;2022-12-07T13:43:46;4.70;99.90
4673;DHT22;61885;53.560;9.940;2022-12-07T13:46:24;4.70;97.00
4673;DHT22;61885;53.560;9.940;2022-12-07T13:48:58;4.70;95.20
4673;DHT22;61885;53.560;9.940;2022-12-07T13:51:28;4.70;79.10
4673;DHT22;61885;53.560;9.940;2022-12-07T13:54:11;4.60;62.00
4673;DHT22;61885;53.560;9.940;2022-12-07T13:56:46;4.60;64.50
4673;DHT22;61885;53.560;9.940;2022-12-07T13:59:24;4.60;57.00
4673;DHT22;61885;53.560;9.940;2022-12-07T14:02:01;4.50;52.40
4673;DHT22;61885;53.560;9.940;2022-12-07T14:04:34;4.50;51.20
4673;DHT22;61885;53.560;9.940;2022-12-07T14:07:24;4.50;50.80
4673;DHT22;61885;53.560;9.940;2022-12-07T14:09:58;4.40;42.10
4673;DHT22;61885;53.560;9.940;2022-12-07T14:12:30;4.30;37.70
4673;DHT22;61885;53.560;9.940;2022-12-07T14:15:15;4.30;37.10
4673;DHT22;61885;53.560;9.940;2022-12-07T14:17:57;4.30;35.90
4673;DHT22;61885;53.560;9.940;2022-12-07T14:20:32;4.30;34.10
4673;DHT22;61885;53.560;9.940;2022-12-07T14:23:05;4.30;34.30
4673;DHT22;61885;53.560;9.940;2022-12-07T14:25:49;4.20;33.70
4673;DHT22;61885;53.560;9.940;2022-12-07T14:28:26;4.20;33.00
4673;DHT22;61885;53.560;9.940;2022-12-07T14:31:07;4.10;33.00
4673;DHT22;61885;53.560;9.940;2022-12-07T14:33:49;4.10;34.80
4673;DHT22;61885;53.560;9.940;2022-12-07T14:36:20;4.20;41.70
4673;DHT22;61885;53.560;9.940;2022-12-07T14:38:50;4.10;35.00
4673;DHT22;61885;53.560;9.940;2022-12-07T14:41:22;4.10;34.80
4673;DHT22;61885;53.560;9.940;2022-12-07T14:44:14;4.00;35.00
4673;DHT22;61885;53.560;9.940;2022-12-07T14:46:50;3.90;35.20
4673;DHT22;61885;53.560;9.940;2022-12-07T14:49:19;3.90;35.30
4673;DHT22;61885;53.560;9.940;2022-12-07T14:51:51;3.80;36.60
4673;DHT22;61885;53.560;9.940;2022-12-07T14:54:26;3.70;38.20
4673;DHT22;61885;53.560;9.940;2022-12-07T14:56:58;3.70;39.20
4673;DHT22;61885;53.560;9.940;2022-12-07T14:59:28;3.70;41.50
4673;DHT22;61885;53.560;9.940;2022-12-07T15:02:03;3.60;40.90
4673;DHT22;61885;53.560;9.940;2022-12-07T15:04:33;3.60;42.00
4673;DHT22;61885;53.560;9.940;2022-12-07T15:07:05;3.60;39.90
4673;DHT22;61885;53.560;9.940;2022-12-07T15:09:35;3.50;40.70
4673;DHT22;61885;53.560;9.940;2022-12-07T15:12:05;3.50;39.40
4673;DHT22;61885;53.560;9.940;2022-12-07T15:14:35;3.50;41.60
4673;DHT22;61885;53.560;9.940;2022-12-07T15:17:10;3.40;40.40
4673;DHT22;61885;53.560;9.940;2022-12-07T15:19:40;3.40;41.30
4673;DHT22;61885;53.560;9.940;2022-12-07T15:22:10;3.40;41.40
4673;DHT22;61885;53.560;9.940;2022-12-07T15:24:40;3.50;49.90
4673;DHT22;61885;53.560;9.940;2022-12-07T15:27:10;3.40;43.60
4673;DHT22;61885;53.560;9.940;2022-12-07T15:29:40;3.40;44.00
4673;DHT22;61885;53.560;9.940;2022-12-07T15:32:14;3.30;43.10
4673;DHT22;61885;53.560;9.940;2022-12-07T15:34:46;3.30;42.50
4673;DHT22;61885;53.560;9.940;2022-12-07T15:37:19;3.30;43.70
4673;DHT22;61885;53.560;9.940;2022-12-07T15:39:49;3.30;42.60
4673;DHT22;61885;53.560;9.940;2022-12-07T15:42:19;3.20;44.40
4673;DHT22;61885;53.560;9.940;2022-12-07T15:44:49;3.20;44.70
4673;DHT22;61885;53.560;9.940;2022-12-07T15:47:36;3.10;45.00
4673;DHT22;61885;53.560;9.940;2022-12-07T15:50:09;3.10;45.30
4673;DHT22;61885;53.560;9.940;2022-12-07T15:52:40;3.10;47.30
4673;DHT22;61885;53.560;9.940;2022-12-07T15:55:11;3.00;49.30
4673;DHT22;61885;53.560;9.940;2022-12-07T15:57:43;2.90;51.80
4673;DHT22;61885;53.560;9.940;2022-12-07T16:00:13;2.80;53.40
4673;DHT22;61885;53.560;9.940;2022-12-07T16:02:47;2.90;53.40
4673;DHT22;61885;53.560;9.940;2022-12-07T16:05:16;2.90;53.40
4673;DHT22;61885;53.560;9.940;2022-12-07T16:07:47;2.90;52.20
4673;DHT22;61885;53.560;9.940;2022-12-07T16:10:18;2.90;53.40
4673;DHT22;61885;53.560;9.940;2022-12-07T16:12:49;2.90;53.40
4673;DHT22;61885;53.560;9.940;2022-12-07T16:15:19;2.80;53.30
4673;DHT22;61885;53.560;9.940;2022-12-07T16:17:53;2.80;52.10
4673;DHT22;61885;53.560;9.940;2022-12-07T16:20:25;2.80;53.40
4673;DHT22;61885;53.560;9.940;2022-12-07T16:22:54;2.80;55.40
4673;DHT22;61885;53.560;9.940;2022-12-07T16:25:24;2.80;55.60
4673;DHT22;61885;53.560;9.940;2022-12-07T16:27:54;2.80;55.20
4673;DHT22;61885;53.560;9.940;2022-12-07T16:30:25;2.80;56.70
4673;DHT22;61885;53.560;9.940;2022-12-07T16:32:59;2.80;56.50
4673;DHT22;61885;53.560;9.940;2022-12-07T16:35:28;2.80;54.20
4673;DHT22;61885;53.560;9.940;2022-12-07T16:38:00;2.80;51.60
4673;DHT22;61885;53.560;9.940;2022-12-07T16:40:31;2.80;51.10
4673;DHT22;61885;53.560;9.940;2022-12-07T16:43:01;2.70;51.80
4673;DHT22;61885;53.560;9.940;2022-12-07T16:45:31;2.70;50.00
4673;DHT22;61885;53.560;9.940;2022-12-07T16:48:05;2.80;51.10
4673;DHT22;61885;53.560;9.940;2022-12-07T16:50:34;2.70;53.20
4673;DHT22;61885;53.560;9.940;2022-12-07T16:53:08;2.70;53.20
4673;DHT22;61885;53.560;9.940;2022-12-07T16:55:37;2.70;53.70
4673;DHT22;61885;53.560;9.940;2022-12-07T16:58:08;2.70;51.00
4673;DHT22;61885;53.560;9.940;2022-12-07T17:00:37;2.70;50.60
4673;DHT22;61885;53.560;9.940;2022-12-07T17:03:12;2.70;53.20
4673;DHT22;61885;53.560;9.940;2022-12-07T17:05:44;2.70;52.70
4673;DHT22;61885;53.560;9.940;2022-12-07T17:08:20;2.70;52.70
4673;DHT22;61885;53.560;9.940;2022-12-07T17:10:50;2.70;53.30
4673;DHT22;61885;53.560;9.940;2022-12-07T17:13:20;2.70;53.20
4673;DHT22;61885;53.560;9.940;2022-12-07T17:16:08;2.70;53.20
4673;DHT22;61885;53.560;9.940;2022-12-07T17:18:45;2.60;51.80